• Join FlightAware (Why Join?)
  • Login
  • US Flag 
06:02PM EDT


 

Airport Tracker/Info


-or-


 

Live Flight TrackerFlight Track Log ✈ RPA4911 ✈ 30-Jun-2013 ✈ KALB - KEWR

Flight Track Log - Related Links

Times and Time Zones

All times are in EDT time to prevent confusion due to time zone crossing. See the RPA4911 flight status page for this flight to view local times or setup timezone preferences in your user account.

Time Position Orientation Groundspeed Altitude Reporting Facility
EDT Latitude Longitude Course Direction KTS MPH feet Rate Location/Type
05:53AM 42.7236 -73.8081 200° South 168 193 1,100  Level Boston Center
05:53AM 42.6881 -73.8100 182° South 202 232 2,200 2,040 Climbing Boston Center
05:54AM 42.6667 -73.8633 241° Southwest 233 268 4,000 2,220 Climbing Boston Center
05:55AM 42.6511 -73.9392 254° West 233 268 6,300 2,220 Climbing Boston Center
05:56AM 42.3938 -73.8671 197° South  Level Estimated
05:56AM 42.5883 -73.9489 187° South 186 214 8,500  Level Boston Center
05:57AM 42.3200 -73.9360 215° Southwest  Level FlightAware Approximate
05:57AM 42.5236 -73.9586 186° South 219 252 10,800  Level Boston Center
05:58AM 42.2309 -73.9490 200° South  Level Estimated
05:58AM 42.4608 -73.9739 190° South 237 273 11,900  Level Boston Center
05:59AM 42.3836 -73.9944 191° South 270 311 12,000 60 Climbing Boston Center
06:00AM 42.3144 -74.0125 191° South 301 346 12,100  Climbing Boston Center
06:01AM 42.2119 -74.0406 191° South 319 367 12,100  Level Boston Center
06:02AM 42.1406 -74.0753 200° South 319 367 12,100  Level Boston Center
06:03AM 42.0567 -74.1122 198° South 319 367 12,100  Level Boston Center
06:04AM 41.9686 -74.1517 198° South 319 367 12,100  Level Boston Center
06:05AM 41.8889 -74.1831 196° South 311 358 12,100  Level Boston Center
06:06AM 41.7986 -74.2222 198° South 316 364 12,100  Level Boston Center
06:07AM 41.7231 -74.2564 199° South 316 364 12,100 -720 Level Boston Center
06:08AM 41.6203 -74.3006 198° South 316 364 10,600 -1,320 Descending Boston Center
06:09AM 41.5508 -74.3292 197° South 289 333 9,300 -1,200 Descending Boston Center
06:11AM 41.4691 -74.3574 196° South  Level FlightAware Approximate
06:11AM 41.4167 -74.3833 196° South 250 288 7,100  Level New York TRACON
06:12AM 41.3500 -74.4167 201° Southwest 239 275 7,100  Level New York TRACON
06:13AM 41.2833 -74.4500 201° Southwest 246 283 7,100 -780 Level New York TRACON
06:14AM 41.2167 -74.4167 159° South 261 300 5,700 -1,020 Descending New York TRACON
06:15AM 41.1500 -74.3667 151° Southeast 264 304 5,100 -720 Descending New York TRACON
06:16AM 41.1000 -74.3000 135° Southeast 247 284 4,300 -540 Descending New York TRACON
06:17AM 41.0500 -74.2500 143° Southeast 244 281 4,100 -180 Descending New York TRACON
06:18AM 40.9833 -74.2000 150° Southeast 256 295 4,000 -540 Descending New York TRACON
06:19AM 40.9333 -74.1500 143° Southeast 245 282 3,100 -480 Descending New York TRACON
06:20AM 40.8833 -74.1000 143° Southeast 241 277 3,100  Level New York TRACON